createdAt,value
2019-02-08T00:00:39.625Z,1.60
2019-02-08T00:03:08.044Z,1.70
2019-02-08T00:05:36.565Z,1.70
2019-02-08T00:08:05.245Z,1.70
2019-02-08T00:10:33.681Z,1.70
2019-02-08T00:13:02.192Z,1.70
2019-02-08T00:15:30.610Z,1.70
2019-02-08T00:17:59.033Z,1.80
2019-02-08T00:20:27.539Z,1.80
2019-02-08T00:22:56.022Z,1.80
2019-02-08T00:25:24.653Z,1.80
2019-02-08T00:27:53.152Z,1.80
2019-02-08T00:30:24.191Z,1.80
2019-02-08T00:32:52.714Z,1.80
2019-02-08T00:35:21.325Z,1.80
2019-02-08T00:37:49.821Z,1.80
2019-02-08T00:40:19.673Z,1.80
2019-02-08T00:42:48.285Z,1.80
2019-02-08T00:45:19.221Z,1.90
2019-02-08T00:47:48.040Z,1.90
2019-02-08T00:50:30.296Z,2.00
2019-02-08T00:52:59.156Z,1.90
2019-02-08T00:55:27.628Z,1.90
2019-02-08T00:57:56.470Z,1.90
2019-02-08T01:00:25.409Z,1.90
2019-02-08T01:02:55.158Z,2.00
2019-02-08T01:05:25.336Z,2.00
2019-02-08T01:07:53.862Z,2.00
2019-02-08T01:10:25.290Z,2.00
2019-02-08T01:12:53.866Z,2.00
2019-02-08T01:15:24.681Z,2.10
2019-02-08T01:17:53.065Z,2.10
2019-02-08T01:20:23.464Z,2.10
2019-02-08T01:22:52.009Z,2.20
2019-02-08T01:25:22.153Z,2.10
2019-02-08T01:27:51.128Z,2.10
2019-02-08T01:30:24.441Z,2.10
2019-02-08T01:32:52.978Z,2.20
2019-02-08T01:35:22.430Z,2.20
2019-02-08T01:37:51.266Z,2.10
2019-02-08T01:40:22.281Z,2.10
2019-02-08T01:42:50.901Z,2.10
2019-02-08T01:45:21.514Z,2.10
2019-02-08T01:47:50.116Z,2.10
2019-02-08T01:50:21.209Z,2.10
2019-02-08T01:52:49.857Z,2.10
2019-02-08T01:55:18.405Z,2.10
2019-02-08T01:57:48.216Z,2.10
2019-02-08T02:00:22.333Z,2.10
2019-02-08T02:02:51.176Z,2.10
2019-02-08T02:05:20.029Z,2.10
2019-02-08T02:07:48.705Z,2.00
2019-02-08T02:10:22.977Z,1.90
2019-02-08T02:12:52.028Z,1.80
2019-02-08T02:15:20.553Z,1.70
2019-02-08T02:17:49.090Z,1.70
2019-02-08T02:20:20.680Z,1.70
2019-02-08T02:22:49.109Z,1.60
2019-02-08T02:25:17.953Z,1.70
2019-02-08T02:27:46.413Z,1.70
2019-02-08T02:30:23.455Z,1.80
2019-02-08T02:32:51.865Z,1.80
2019-02-08T02:35:20.426Z,2.00
2019-02-08T02:37:48.814Z,2.10
2019-02-08T02:40:19.092Z,2.10
2019-02-08T02:42:47.534Z,2.20
2019-02-08T02:45:32.968Z,2.10
2019-02-08T02:48:03.512Z,2.20
2019-02-08T02:50:31.995Z,2.10
2019-02-08T02:53:00.376Z,2.10
2019-02-08T02:55:30.817Z,2.10
2019-02-08T02:57:59.379Z,2.20
2019-02-08T03:00:33.955Z,2.20
2019-02-08T03:03:02.630Z,2.20
2019-02-08T03:05:31.109Z,2.20
2019-02-08T03:07:59.522Z,2.10
2019-02-08T03:10:28.187Z,2.10
2019-02-08T03:12:56.696Z,2.10
2019-02-08T03:15:25.787Z,2.10
2019-02-08T03:17:54.420Z,2.00
2019-02-08T03:20:25.598Z,2.00
2019-02-08T03:22:54.175Z,2.00
2019-02-08T03:25:25.219Z,2.00
2019-02-08T03:27:53.776Z,2.10
2019-02-08T03:30:42.124Z,2.10
2019-02-08T03:33:10.680Z,2.10
2019-02-08T03:35:39.225Z,2.10
2019-02-08T03:38:07.709Z,2.10
2019-02-08T03:40:36.160Z,2.10
2019-02-08T03:43:05.400Z,2.20
2019-02-08T03:45:35.572Z,2.20
2019-02-08T03:48:04.508Z,2.10
2019-02-08T03:50:33.048Z,2.10
2019-02-08T03:53:01.423Z,2.20
2019-02-08T03:55:29.871Z,2.20
2019-02-08T03:57:58.339Z,2.10
2019-02-08T04:00:43.615Z,2.10
2019-02-08T04:03:12.047Z,2.10
2019-02-08T04:05:40.670Z,2.10
2019-02-08T04:08:09.083Z,2.20
2019-02-08T04:10:37.593Z,2.20
2019-02-08T04:13:06.110Z,2.10
2019-02-08T04:15:34.772Z,2.10
2019-02-08T04:18:03.247Z,2.10
2019-02-08T04:20:31.764Z,2.20
2019-02-08T04:23:00.192Z,2.20
2019-02-08T04:25:28.658Z,2.20
2019-02-08T04:27:57.104Z,2.20
2019-02-08T04:30:28.481Z,2.10
2019-02-08T04:32:57.850Z,2.20
2019-02-08T04:35:26.299Z,2.20
2019-02-08T04:37:54.738Z,2.10
2019-02-08T04:40:27.446Z,2.10
2019-02-08T04:42:56.182Z,2.10
2019-02-08T04:45:24.737Z,2.10
2019-02-08T04:47:53.315Z,2.10
2019-02-08T04:50:24.853Z,2.10
2019-02-08T04:52:53.510Z,2.10
2019-02-08T04:55:22.039Z,2.10
2019-02-08T04:57:50.414Z,2.10
2019-02-08T05:00:24.592Z,2.10
2019-02-08T05:02:53.026Z,2.10
2019-02-08T05:05:21.553Z,2.10
2019-02-08T05:07:50.049Z,2.10
2019-02-08T05:10:23.793Z,2.10
2019-02-08T05:12:52.377Z,2.10
2019-02-08T05:15:22.978Z,2.10
2019-02-08T05:17:51.481Z,2.10
2019-02-08T05:20:27.535Z,2.10
2019-02-08T05:22:55.922Z,2.10
2019-02-08T05:25:24.507Z,2.10
2019-02-08T05:27:53.070Z,2.10
2019-02-08T05:30:30.092Z,2.10
2019-02-08T05:32:58.595Z,2.00
2019-02-08T05:35:27.254Z,2.10
2019-02-08T05:37:55.685Z,2.10
2019-02-08T05:40:24.848Z,2.10
2019-02-08T05:42:53.715Z,2.10
2019-02-08T05:45:23.806Z,2.10
2019-02-08T05:47:52.260Z,2.10
2019-02-08T05:50:26.556Z,2.10
2019-02-08T05:52:55.527Z,2.10
2019-02-08T05:55:31.645Z,2.20
2019-02-08T05:58:00.197Z,2.10
2019-02-08T06:00:32.447Z,2.10
2019-02-08T06:03:02.464Z,2.10
2019-02-08T06:05:31.040Z,2.10
2019-02-08T06:07:59.514Z,2.10
2019-02-08T06:10:27.963Z,2.10
2019-02-08T06:12:56.433Z,2.10
2019-02-08T06:15:25.807Z,2.10
2019-02-08T06:17:54.286Z,2.10
2019-02-08T06:20:25.087Z,2.10
2019-02-08T06:22:53.558Z,2.10
2019-02-08T06:25:23.276Z,2.10
2019-02-08T06:27:52.200Z,2.10
2019-02-08T06:30:22.877Z,2.00
2019-02-08T06:32:51.560Z,2.10
2019-02-08T06:35:21.767Z,2.00
2019-02-08T06:37:50.276Z,2.10
2019-02-08T06:40:32.984Z,2.00
2019-02-08T06:43:02.329Z,2.10
2019-02-08T06:45:30.949Z,2.10
2019-02-08T06:47:59.485Z,2.10
2019-02-08T06:50:28.448Z,2.10
2019-02-08T06:52:56.955Z,2.00
2019-02-08T06:55:25.404Z,2.10
2019-02-08T06:58:05.113Z,2.10
2019-02-08T07:00:46.781Z,2.00
2019-02-08T07:03:33.301Z,2.00
2019-02-08T07:06:12.450Z,2.00
2019-02-08T07:08:48.084Z,2.10
2019-02-08T07:11:21.158Z,2.20
2019-02-08T07:14:09.733Z,2.20
2019-02-08T07:17:00.264Z,2.20
2019-02-08T07:19:35.882Z,2.10
2019-02-08T07:22:08.583Z,2.20
2019-02-08T07:24:41.287Z,2.20
2019-02-08T07:27:14.038Z,2.30
2019-02-08T07:30:01.806Z,2.40
2019-02-08T07:32:34.833Z,2.40
2019-02-08T07:35:23.863Z,2.50
2019-02-08T07:37:57.055Z,2.60
2019-02-08T07:40:29.946Z,2.60
2019-02-08T07:43:01.368Z,2.60
2019-02-08T07:45:42.505Z,2.60
2019-02-08T07:48:12.740Z,2.60
2019-02-08T07:50:51.648Z,2.50
2019-02-08T07:53:30.489Z,2.50
2019-02-08T07:56:18.721Z,2.50
2019-02-08T07:58:49.173Z,2.50
2019-02-08T08:01:19.578Z,2.50
2019-02-08T08:04:01.383Z,2.60
2019-02-08T08:06:46.982Z,2.60
2019-02-08T08:09:17.147Z,2.60
2019-02-08T08:11:53.983Z,2.70
2019-02-08T08:14:27.438Z,2.80
2019-02-08T08:16:57.615Z,2.80
2019-02-08T08:19:30.606Z,2.90
2019-02-08T08:22:00.724Z,3.00
2019-02-08T08:24:33.571Z,2.90
2019-02-08T08:27:04.217Z,3.00
2019-02-08T08:29:36.087Z,3.00
2019-02-08T08:32:09.760Z,3.00
2019-02-08T08:34:49.892Z,2.90
2019-02-08T08:37:49.986Z,2.90
2019-02-08T08:40:45.554Z,2.90
2019-02-08T08:43:34.887Z,2.80
2019-02-08T08:46:24.358Z,3.00
2019-02-08T08:49:19.627Z,3.10
2019-02-08T08:51:56.759Z,3.10
2019-02-08T08:54:54.706Z,3.00
2019-02-08T08:57:34.957Z,3.00
2019-02-08T09:00:23.870Z,3.00
2019-02-08T09:03:10.333Z,3.00
2019-02-08T09:05:44.846Z,3.00
2019-02-08T09:08:24.928Z,3.10
2019-02-08T09:11:18.850Z,3.10
2019-02-08T09:14:09.706Z,3.20
2019-02-08T09:17:10.959Z,3.20
2019-02-08T09:19:45.105Z,3.20
2019-02-08T09:22:42.096Z,3.10
2019-02-08T09:25:28.397Z,3.10
2019-02-08T09:28:02.786Z,3.10
2019-02-08T09:30:53.709Z,3.10
2019-02-08T09:33:47.752Z,3.10
2019-02-08T09:36:35.601Z,3.10
2019-02-08T09:39:38.550Z,3.10
2019-02-08T09:42:12.855Z,3.10
2019-02-08T09:44:58.521Z,3.20
2019-02-08T09:47:46.381Z,3.20
2019-02-08T09:50:39.939Z,3.20
2019-02-08T09:53:20.308Z,3.20
2019-02-08T09:56:13.715Z,3.20
2019-02-08T09:59:03.092Z,3.30
2019-02-08T10:02:03.077Z,3.30
2019-02-08T10:04:57.110Z,3.40
2019-02-08T10:07:43.732Z,3.40
2019-02-08T10:10:49.068Z,3.40
2019-02-08T10:13:38.373Z,3.50
2019-02-08T10:16:44.094Z,3.60
2019-02-08T10:19:26.735Z,3.70
2019-02-08T10:22:02.014Z,3.70
2019-02-08T10:24:55.742Z,3.80
2019-02-08T10:27:41.831Z,3.80
2019-02-08T10:30:35.816Z,3.90
2019-02-08T10:33:15.889Z,3.90
2019-02-08T10:36:08.717Z,3.90
2019-02-08T10:39:08.481Z,4.00
2019-02-08T10:42:08.342Z,4.00
2019-02-08T10:44:56.266Z,4.10
2019-02-08T10:47:42.436Z,4.10
2019-02-08T10:50:25.720Z,4.10
2019-02-08T10:53:21.261Z,4.30
2019-02-08T10:56:14.896Z,4.40
2019-02-08T10:59:05.779Z,4.50
2019-02-08T11:02:10.453Z,4.60
2019-02-08T11:05:13.529Z,4.80
2019-02-08T11:08:10.252Z,4.90
2019-02-08T11:10:44.708Z,5.00
2019-02-08T11:13:19.050Z,5.10
2019-02-08T11:16:06.857Z,5.20
2019-02-08T11:19:00.712Z,5.00
2019-02-08T11:21:29.252Z,5.00
2019-02-08T11:23:57.762Z,5.10
2019-02-08T11:26:26.239Z,5.30
2019-02-08T11:28:54.700Z,5.40
2019-02-08T11:31:23.150Z,5.50
2019-02-08T11:33:51.575Z,5.60
2019-02-08T11:36:20.190Z,5.50
2019-02-08T11:38:48.622Z,5.50
2019-02-08T11:41:17.142Z,5.50
2019-02-08T11:43:45.590Z,5.50
2019-02-08T11:46:14.059Z,5.40
2019-02-08T11:48:42.510Z,5.20
2019-02-08T11:51:10.956Z,5.30
2019-02-08T11:53:39.398Z,5.40
2019-02-08T11:56:08.007Z,5.30
2019-02-08T11:58:36.414Z,5.30
2019-02-08T12:01:05.409Z,5.30
2019-02-08T12:03:33.802Z,5.30
2019-02-08T12:06:02.510Z,5.30
2019-02-08T12:08:31.013Z,5.30
2019-02-08T12:10:59.480Z,5.20
2019-02-08T12:13:27.928Z,5.20
2019-02-08T12:15:56.369Z,5.20
2019-02-08T12:18:24.881Z,5.20
2019-02-08T12:20:53.306Z,5.10
2019-02-08T12:23:21.746Z,4.90
2019-02-08T12:25:50.180Z,4.90
2019-02-08T12:28:18.588Z,5.10
2019-02-08T12:30:47.098Z,5.30
2019-02-08T12:33:15.642Z,5.30
2019-02-08T12:35:44.113Z,5.40
2019-02-08T12:38:12.550Z,5.40
2019-02-08T12:40:40.970Z,5.30
2019-02-08T12:43:09.388Z,5.30
2019-02-08T12:45:37.831Z,5.20
2019-02-08T12:48:07.193Z,5.20
2019-02-08T12:50:35.620Z,5.20
2019-02-08T12:53:04.256Z,5.30
2019-02-08T12:55:32.701Z,5.20
2019-02-08T12:58:01.151Z,5.10
2019-02-08T13:00:29.668Z,5.00
2019-02-08T13:02:58.047Z,4.80
2019-02-08T13:05:26.685Z,4.80
2019-02-08T13:07:55.070Z,4.80
2019-02-08T13:10:25.733Z,4.70
2019-02-08T13:12:54.315Z,4.70
2019-02-08T13:15:23.074Z,4.60
2019-02-08T13:17:51.626Z,4.60
2019-02-08T13:20:23.607Z,4.60
2019-02-08T13:22:52.104Z,4.60
2019-02-08T13:25:20.710Z,4.60
2019-02-08T13:27:49.570Z,4.60
2019-02-08T13:30:32.138Z,4.60
2019-02-08T13:33:01.213Z,4.80
2019-02-08T13:35:30.226Z,4.90
2019-02-08T13:37:58.649Z,4.90
2019-02-08T13:40:31.419Z,5.00
2019-02-08T13:43:01.226Z,4.90
2019-02-08T13:45:29.709Z,4.90
2019-02-08T13:47:58.196Z,4.90
2019-02-08T13:50:30.955Z,4.80
2019-02-08T13:53:01.149Z,4.80
2019-02-08T13:55:30.226Z,4.60
2019-02-08T13:57:58.667Z,4.60
2019-02-08T14:00:35.509Z,4.60
2019-02-08T14:03:04.625Z,4.60
2019-02-08T14:05:33.207Z,4.60
2019-02-08T14:08:01.622Z,4.50
2019-02-08T14:10:30.163Z,4.50
2019-02-08T14:12:58.626Z,4.50
2019-02-08T14:15:27.241Z,4.50
2019-02-08T14:17:55.657Z,4.50
2019-02-08T14:20:25.708Z,4.50
2019-02-08T14:22:54.598Z,4.50
2019-02-08T14:25:23.154Z,4.60
2019-02-08T14:27:51.806Z,4.50
2019-02-08T14:30:35.006Z,4.60
2019-02-08T14:33:03.639Z,4.50
2019-02-08T14:35:32.193Z,4.50
2019-02-08T14:38:02.245Z,4.50
2019-02-08T14:40:31.230Z,4.50
2019-02-08T14:43:01.059Z,4.50
2019-02-08T14:45:29.685Z,4.50
2019-02-08T14:47:58.277Z,4.60
2019-02-08T14:50:28.299Z,4.50
2019-02-08T14:52:57.310Z,4.50
2019-02-08T14:55:26.039Z,4.50
2019-02-08T14:57:57.117Z,4.50
2019-02-08T15:00:26.486Z,4.50
2019-02-08T15:02:54.885Z,4.50
2019-02-08T15:05:23.792Z,4.50
2019-02-08T15:07:52.473Z,4.50
2019-02-08T15:10:26.358Z,4.50
2019-02-08T15:12:54.999Z,4.50
2019-02-08T15:15:23.478Z,4.40
2019-02-08T15:17:51.992Z,4.30
2019-02-08T15:20:33.788Z,4.30
2019-02-08T15:23:02.262Z,4.30
2019-02-08T15:25:31.110Z,4.20
2019-02-08T15:27:59.625Z,4.20
2019-02-08T15:30:30.513Z,4.20
2019-02-08T15:32:59.098Z,4.20
2019-02-08T15:35:30.165Z,4.10
2019-02-08T15:37:58.741Z,4.10
2019-02-08T15:40:45.268Z,4.20
2019-02-08T15:43:15.657Z,4.10
2019-02-08T15:45:47.739Z,4.10
2019-02-08T15:48:16.276Z,4.00
2019-02-08T15:50:44.810Z,4.00
2019-02-08T15:53:13.318Z,3.90
2019-02-08T15:55:50.644Z,3.90
2019-02-08T15:58:19.152Z,3.90
2019-02-08T16:00:47.756Z,3.90
2019-02-08T16:03:16.903Z,3.90
2019-02-08T16:05:45.297Z,3.80
2019-02-08T16:08:13.838Z,3.70
2019-02-08T16:10:42.335Z,3.70
2019-02-08T16:13:10.742Z,3.70
2019-02-08T16:15:39.341Z,3.70
2019-02-08T16:18:08.356Z,3.60
2019-02-08T16:20:36.792Z,3.60
2019-02-08T16:23:05.729Z,3.60
2019-02-08T16:25:34.526Z,3.50
2019-02-08T16:28:02.986Z,3.50
2019-02-08T16:30:33.243Z,3.50
2019-02-08T16:33:01.878Z,3.50
2019-02-08T16:35:30.472Z,3.50
2019-02-08T16:37:59.086Z,3.50
2019-02-08T16:40:31.351Z,3.50
2019-02-08T16:43:00.841Z,3.50
2019-02-08T16:45:31.085Z,3.50
2019-02-08T16:48:02.142Z,3.50
2019-02-08T16:50:32.176Z,3.40
2019-02-08T16:53:00.908Z,3.40
2019-02-08T16:55:29.344Z,3.40
2019-02-08T16:57:57.821Z,3.30
2019-02-08T17:00:28.291Z,3.20
2019-02-08T17:02:58.175Z,3.10
2019-02-08T17:05:27.855Z,3.00
2019-02-08T17:07:56.416Z,2.90
2019-02-08T17:10:24.866Z,2.80
2019-02-08T17:12:53.386Z,2.80
2019-02-08T17:15:27.016Z,2.80
2019-02-08T17:17:55.649Z,2.70
2019-02-08T17:20:26.547Z,2.60
2019-02-08T17:22:55.129Z,2.60
2019-02-08T17:25:23.796Z,2.70
2019-02-08T17:27:55.419Z,2.70
2019-02-08T17:30:22.625Z,2.60
2019-02-08T17:32:51.138Z,2.60
2019-02-08T17:35:21.629Z,2.50
2019-02-08T17:37:50.083Z,2.40
2019-02-08T17:40:30.134Z,2.30
2019-02-08T17:42:58.609Z,2.30
2019-02-08T17:45:27.180Z,2.30
2019-02-08T17:47:57.033Z,2.20
2019-02-08T17:50:26.834Z,2.10
2019-02-08T17:52:55.245Z,2.00
2019-02-08T17:55:25.537Z,2.00
2019-02-08T17:57:54.375Z,2.10
2019-02-08T18:00:38.479Z,2.00
2019-02-08T18:03:07.054Z,2.10
2019-02-08T18:05:35.556Z,2.20
2019-02-08T18:08:04.440Z,2.30
2019-02-08T18:10:32.931Z,2.40
2019-02-08T18:13:01.410Z,2.40
2019-02-08T18:15:29.810Z,2.30
2019-02-08T18:17:58.326Z,2.20
2019-02-08T18:20:47.908Z,2.10
2019-02-08T18:23:16.369Z,2.20
2019-02-08T18:25:44.838Z,2.20
2019-02-08T18:28:13.260Z,2.30
2019-02-08T18:30:41.759Z,2.20
2019-02-08T18:33:10.194Z,2.20
2019-02-08T18:35:38.634Z,2.10
2019-02-08T18:38:07.182Z,2.10
2019-02-08T18:40:35.628Z,2.10
2019-02-08T18:43:04.323Z,2.10
2019-02-08T18:45:35.002Z,2.10
2019-02-08T18:48:03.652Z,2.10
2019-02-08T18:50:44.062Z,2.00
2019-02-08T18:53:12.461Z,2.00
2019-02-08T18:55:40.908Z,2.00
2019-02-08T18:58:09.398Z,2.00
2019-02-08T19:00:40.502Z,2.00
2019-02-08T19:03:09.143Z,2.00
2019-02-08T19:05:37.603Z,2.10
2019-02-08T19:08:06.516Z,2.10
2019-02-08T19:10:34.953Z,2.20
2019-02-08T19:13:03.470Z,2.20
2019-02-08T19:15:33.546Z,2.20
2019-02-08T19:18:03.359Z,2.20
2019-02-08T19:20:31.994Z,2.20
2019-02-08T19:23:00.543Z,2.20
2019-02-08T19:25:34.652Z,2.20
2019-02-08T19:28:03.199Z,2.30
2019-02-08T19:30:39.804Z,2.20
2019-02-08T19:33:08.470Z,2.30
2019-02-08T19:35:36.950Z,2.50
2019-02-08T19:38:06.864Z,2.50
2019-02-08T19:40:46.069Z,2.50
2019-02-08T19:43:14.541Z,2.50
2019-02-08T19:45:43.212Z,2.50
2019-02-08T19:48:11.898Z,2.50
2019-02-08T19:50:42.144Z,2.50
2019-02-08T19:53:11.151Z,2.60
2019-02-08T19:55:40.226Z,2.60
2019-02-08T19:58:09.513Z,2.60
2019-02-08T20:00:42.919Z,2.80
2019-02-08T20:03:11.468Z,2.80
2019-02-08T20:05:40.472Z,2.80
2019-02-08T20:08:11.146Z,2.90
2019-02-08T20:10:42.168Z,3.00
2019-02-08T20:13:10.803Z,3.00
2019-02-08T20:15:39.369Z,3.00
2019-02-08T20:18:08.000Z,3.00
2019-02-08T20:20:36.531Z,3.00
2019-02-08T20:23:06.432Z,3.00
2019-02-08T20:25:35.874Z,3.00
2019-02-08T20:28:06.345Z,3.00
2019-02-08T20:30:34.797Z,2.90
2019-02-08T20:33:03.704Z,3.00
2019-02-08T20:35:32.245Z,3.00
2019-02-08T20:38:01.112Z,3.00
2019-02-08T20:40:31.653Z,3.00
2019-02-08T20:43:00.198Z,3.00
2019-02-08T20:45:31.220Z,3.00
2019-02-08T20:48:04.921Z,3.00
2019-02-08T20:50:33.441Z,3.10
2019-02-08T20:53:04.194Z,3.00
2019-02-08T20:55:32.863Z,3.10
2019-02-08T20:58:01.440Z,3.10
2019-02-08T21:00:37.159Z,3.10
2019-02-08T21:03:11.573Z,3.10
2019-02-08T21:05:41.009Z,3.20
2019-02-08T21:08:12.215Z,3.20
2019-02-08T21:10:44.137Z,3.20
2019-02-08T21:13:12.665Z,3.20
2019-02-08T21:15:41.401Z,3.20
2019-02-08T21:18:10.295Z,3.20
2019-02-08T21:20:39.141Z,3.20
2019-02-08T21:23:08.198Z,3.20
2019-02-08T21:25:38.448Z,3.30
2019-02-08T21:28:07.197Z,3.30
2019-02-08T21:30:35.860Z,3.30
2019-02-08T21:33:05.773Z,3.30
2019-02-08T21:35:34.330Z,3.40
2019-02-08T21:38:02.775Z,3.40
2019-02-08T21:40:31.657Z,3.40
2019-02-08T21:43:00.821Z,3.40
2019-02-08T21:45:34.066Z,3.50
2019-02-08T21:48:02.634Z,3.50
2019-02-08T21:50:31.206Z,3.40
2019-02-08T21:53:00.349Z,3.40
2019-02-08T21:55:29.793Z,3.50
2019-02-08T21:57:58.279Z,3.50
2019-02-08T22:00:34.827Z,3.50
2019-02-08T22:03:05.154Z,3.40
2019-02-08T22:05:42.301Z,3.40
2019-02-08T22:08:10.818Z,3.50
2019-02-08T22:10:39.302Z,3.40
2019-02-08T22:13:07.761Z,3.50
2019-02-08T22:15:40.810Z,3.50
2019-02-08T22:18:09.371Z,3.50
2019-02-08T22:20:38.254Z,3.50
2019-02-08T22:23:06.914Z,3.60
2019-02-08T22:25:35.804Z,3.50
2019-02-08T22:28:04.702Z,3.50
2019-02-08T22:30:33.449Z,3.40
2019-02-08T22:33:08.811Z,3.40
2019-02-08T22:35:37.397Z,3.30
2019-02-08T22:38:08.662Z,3.20
2019-02-08T22:40:37.079Z,3.20
2019-02-08T22:43:06.153Z,3.00
2019-02-08T22:45:36.450Z,2.90
2019-02-08T22:48:05.408Z,2.90
2019-02-08T22:50:33.925Z,2.80
2019-02-08T22:53:02.441Z,2.70
2019-02-08T22:55:34.720Z,2.70
2019-02-08T22:58:03.246Z,2.60
2019-02-08T23:00:42.069Z,2.50
2019-02-08T23:03:15.151Z,2.50
2019-02-08T23:05:45.528Z,2.40
2019-02-08T23:08:14.018Z,2.40
2019-02-08T23:10:42.513Z,2.30
2019-02-08T23:13:11.204Z,2.30
2019-02-08T23:15:39.882Z,2.30
2019-02-08T23:18:11.944Z,2.20
2019-02-08T23:20:40.563Z,2.20
2019-02-08T23:23:09.409Z,2.20
2019-02-08T23:25:37.942Z,2.10
2019-02-08T23:28:06.691Z,2.10
2019-02-08T23:30:35.522Z,2.10
2019-02-08T23:33:04.553Z,2.10
2019-02-08T23:35:32.999Z,2.00
2019-02-08T23:38:01.408Z,2.00
2019-02-08T23:40:30.052Z,2.00
2019-02-08T23:45:23.074Z,2.00
2019-02-08T23:47:51.585Z,1.90
2019-02-08T23:50:25.001Z,1.80
2019-02-08T23:52:54.854Z,1.80
2019-02-08T23:55:25.173Z,1.80
2019-02-08T23:57:53.684Z,1.80
